createdAt,value
2019-05-23T00:00:46.153Z,68.20
2019-05-23T00:03:16.768Z,69.00
2019-05-23T00:05:53.808Z,68.10
2019-05-23T00:08:22.754Z,68.10
2019-05-23T00:11:03.622Z,67.90
2019-05-23T00:13:45.031Z,68.00
2019-05-23T00:16:11.521Z,68.00
2019-05-23T00:18:37.763Z,67.90
2019-05-23T00:21:04.612Z,67.90
2019-05-23T00:23:31.934Z,67.20
2019-05-23T00:26:00.452Z,68.00
2019-05-23T00:28:27.693Z,67.90
2019-05-23T00:30:58.662Z,68.20
2019-05-23T00:33:27.169Z,67.90
2019-05-23T00:35:56.013Z,67.90
2019-05-23T00:38:22.632Z,67.80
2019-05-23T00:40:50.091Z,67.80
2019-05-23T00:43:17.616Z,67.90
2019-05-23T00:45:44.309Z,67.80
2019-05-23T00:48:11.745Z,67.80
2019-05-23T00:50:38.835Z,67.70
2019-05-23T00:53:06.388Z,67.50
2019-05-23T00:55:34.652Z,67.50
2019-05-23T00:58:02.268Z,67.60
2019-05-23T01:00:29.432Z,67.60
2019-05-23T01:02:56.314Z,67.50
2019-05-23T01:05:24.001Z,68.20
2019-05-23T01:07:51.079Z,67.50
2019-05-23T01:10:18.069Z,67.40
2019-05-23T01:12:45.202Z,67.40
2019-05-23T01:15:14.094Z,67.20
2019-05-23T01:17:40.457Z,67.20
2019-05-23T01:20:16.449Z,67.20
2019-05-23T01:22:43.530Z,67.40
2019-05-23T01:25:13.156Z,67.10
2019-05-23T01:27:39.376Z,67.10
2019-05-23T01:30:11.291Z,67.00
2019-05-23T01:32:39.505Z,67.00
2019-05-23T01:35:06.753Z,67.00
2019-05-23T01:37:32.902Z,67.00
2019-05-23T01:39:59.393Z,67.00
2019-05-23T01:42:26.155Z,66.90
2019-05-23T01:44:54.105Z,67.00
2019-05-23T01:47:20.417Z,66.90
2019-05-23T01:49:47.110Z,67.70
2019-05-23T01:52:13.571Z,66.80
2019-05-23T01:54:39.803Z,66.80
2019-05-23T01:57:06.644Z,66.90
2019-05-23T01:59:33.402Z,66.80
2019-05-23T02:01:59.565Z,66.80
2019-05-23T02:04:26.446Z,66.70
2019-05-23T02:06:53.795Z,66.70
2019-05-23T02:09:20.660Z,66.60
2019-05-23T02:11:48.440Z,66.50
2019-05-23T02:14:16.036Z,66.60
2019-05-23T02:16:43.889Z,66.40
2019-05-23T02:19:13.670Z,66.30
2019-05-23T02:21:39.121Z,66.30
2019-05-23T02:24:06.510Z,66.90
2019-05-23T02:26:33.219Z,66.60
2019-05-23T02:29:02.409Z,66.10
2019-05-23T02:31:28.630Z,66.20
2019-05-23T02:33:54.774Z,66.20
2019-05-23T02:36:21.436Z,66.10
2019-05-23T02:38:52.884Z,66.20
2019-05-23T02:41:23.689Z,66.20
2019-05-23T02:43:52.336Z,66.10
2019-05-23T02:46:24.235Z,66.00
2019-05-23T02:48:53.406Z,66.00
2019-05-23T02:51:24.527Z,66.00
2019-05-23T02:53:53.570Z,65.90
2019-05-23T02:56:20.420Z,65.80
2019-05-23T02:59:10.298Z,65.90
2019-05-23T03:02:02.484Z,65.80
2019-05-23T03:04:30.338Z,65.70
2019-05-23T03:06:59.091Z,65.80
2019-05-23T03:09:30.633Z,66.10
2019-05-23T03:11:59.052Z,65.90
2019-05-23T03:14:26.198Z,65.90
2019-05-23T03:16:52.620Z,66.00
2019-05-23T03:19:30.714Z,65.90
2019-05-23T03:22:20.717Z,66.00
2019-05-23T03:24:47.482Z,66.00
2019-05-23T03:27:14.770Z,66.10
2019-05-23T03:29:42.999Z,66.30
2019-05-23T03:32:14.128Z,66.40
2019-05-23T03:34:42.287Z,67.20
2019-05-23T03:37:08.736Z,66.50
2019-05-23T03:39:34.982Z,66.50
2019-05-23T03:42:01.523Z,66.50
2019-05-23T03:44:28.368Z,66.60
2019-05-23T03:46:56.449Z,66.60
2019-05-23T03:49:24.555Z,66.50
2019-05-23T03:51:51.961Z,66.50
2019-05-23T03:54:18.893Z,66.50
2019-05-23T03:56:45.963Z,66.60
2019-05-23T03:59:13.901Z,66.80
2019-05-23T04:01:48.340Z,66.80
2019-05-23T04:04:12.106Z,66.90
2019-05-23T04:06:38.774Z,66.80
2019-05-23T04:09:07.296Z,66.90
2019-05-23T04:11:33.864Z,66.90
2019-05-23T04:14:07.384Z,66.90
2019-05-23T04:16:34.541Z,66.80
2019-05-23T04:19:04.567Z,67.20
2019-05-23T04:21:30.850Z,66.70
2019-05-23T04:23:57.465Z,66.70
2019-05-23T04:26:23.916Z,66.70
2019-05-23T04:28:50.947Z,66.60
2019-05-23T04:31:29.636Z,66.60
2019-05-23T04:33:56.418Z,66.60
2019-05-23T04:36:22.910Z,66.40
2019-05-23T04:38:52.610Z,66.50
2019-05-23T04:41:18.796Z,66.50
2019-05-23T04:43:45.580Z,66.50
2019-05-23T04:46:12.941Z,66.60
2019-05-23T04:48:39.159Z,66.50
2019-05-23T04:51:06.933Z,66.40
2019-05-23T04:53:36.948Z,66.40
2019-05-23T04:56:04.241Z,66.50
2019-05-23T04:58:30.703Z,66.40
2019-05-23T05:00:59.412Z,66.30
2019-05-23T05:03:28.904Z,66.20
2019-05-23T05:05:56.353Z,66.20
2019-05-23T05:08:23.586Z,66.00
2019-05-23T05:10:50.422Z,66.60
2019-05-23T05:13:16.967Z,65.70
2019-05-23T05:15:43.544Z,65.60
2019-05-23T05:18:10.384Z,65.50
2019-05-23T05:20:36.614Z,65.40
2019-05-23T05:23:03.398Z,65.40
2019-05-23T05:25:29.597Z,65.30
2019-05-23T05:27:57.435Z,65.30
2019-05-23T05:30:24.072Z,65.10
2019-05-23T05:32:50.305Z,65.00
2019-05-23T05:35:16.638Z,64.90
2019-05-23T05:37:42.789Z,64.80
2019-05-23T05:40:09.505Z,64.70
2019-05-23T05:42:36.058Z,64.60
2019-05-23T05:45:06.293Z,64.70
2019-05-23T05:47:32.464Z,64.60
2019-05-23T05:49:58.998Z,64.50
2019-05-23T05:52:25.254Z,64.50
2019-05-23T05:54:51.785Z,64.40
2019-05-23T05:57:18.362Z,64.10
2019-05-23T05:59:44.898Z,64.00
2019-05-23T06:02:12.981Z,63.30
2019-05-23T06:04:39.496Z,64.60
2019-05-23T06:07:16.977Z,63.70
2019-05-23T06:09:44.516Z,63.50
2019-05-23T06:12:11.557Z,63.30
2019-05-23T06:14:39.245Z,63.20
2019-05-23T06:17:07.454Z,63.00
2019-05-23T06:19:34.046Z,62.70
2019-05-23T06:22:01.550Z,62.70
2019-05-23T06:24:42.239Z,62.60
2019-05-23T06:26:56.209Z,62.50
2019-05-23T06:29:22.871Z,62.50
2019-05-23T06:31:49.690Z,62.60
2019-05-23T06:34:16.664Z,62.40
2019-05-23T06:36:42.981Z,62.30
2019-05-23T06:39:12.846Z,62.20
2019-05-23T06:41:39.568Z,62.10
2019-05-23T06:44:07.799Z,62.00
2019-05-23T06:46:34.199Z,61.80
2019-05-23T06:49:00.364Z,61.90
2019-05-23T06:51:26.693Z,62.20
2019-05-23T06:53:53.313Z,62.00
2019-05-23T06:56:20.385Z,61.50
2019-05-23T06:58:46.654Z,60.50
2019-05-23T07:01:13.100Z,59.70
2019-05-23T07:03:42.933Z,59.50
2019-05-23T07:06:08.490Z,58.20
2019-05-23T07:08:34.991Z,57.90
2019-05-23T07:11:01.404Z,57.70
2019-05-23T07:13:29.076Z,58.40
2019-05-23T07:15:56.171Z,58.10
2019-05-23T07:18:22.394Z,62.30
2019-05-23T07:20:48.571Z,63.20
2019-05-23T07:23:15.812Z,63.10
2019-05-23T07:25:42.063Z,62.40
2019-05-23T07:28:08.587Z,61.70
2019-05-23T07:30:34.946Z,60.40
2019-05-23T07:33:09.606Z,58.80
2019-05-23T07:35:35.997Z,57.60
2019-05-23T07:38:02.484Z,56.50
2019-05-23T07:40:29.228Z,55.20
2019-05-23T07:42:55.573Z,55.40
2019-05-23T07:45:40.396Z,55.40
2019-05-23T07:48:07.512Z,56.40
2019-05-23T07:50:33.789Z,55.30
2019-05-23T07:53:00.533Z,53.70
2019-05-23T07:55:37.539Z,52.40
2019-05-23T07:58:04.784Z,51.40
2019-05-23T08:00:44.786Z,50.00
2019-05-23T08:03:12.886Z,49.20
2019-05-23T08:05:39.228Z,50.20
2019-05-23T08:08:06.855Z,50.20
2019-05-23T08:10:34.556Z,50.30
2019-05-23T08:13:01.107Z,50.00
2019-05-23T08:15:28.133Z,48.50
2019-05-23T08:17:54.457Z,46.60
2019-05-23T08:20:20.763Z,45.30
2019-05-23T08:22:47.003Z,43.40
2019-05-23T08:25:14.167Z,41.20
2019-05-23T08:27:40.391Z,40.30
2019-05-23T08:30:07.976Z,39.50
2019-05-23T08:32:34.487Z,39.10
2019-05-23T08:35:01.137Z,39.50
2019-05-23T08:37:27.924Z,39.20
2019-05-23T08:39:54.323Z,37.90
2019-05-23T08:42:21.602Z,36.50
2019-05-23T08:44:47.908Z,36.10
2019-05-23T08:47:14.549Z,35.40
2019-05-23T08:49:40.879Z,34.40
2019-05-23T08:52:07.442Z,34.40
2019-05-23T08:54:34.200Z,34.10
2019-05-23T08:57:01.111Z,32.70
2019-05-23T08:59:28.114Z,32.80
2019-05-23T09:01:54.902Z,32.20
2019-05-23T09:04:21.219Z,32.80
2019-05-23T09:06:47.391Z,32.90
2019-05-23T09:09:29.291Z,32.50
2019-05-23T09:11:43.531Z,31.50
2019-05-23T09:14:10.271Z,30.10
2019-05-23T09:16:37.313Z,30.60
2019-05-23T09:19:03.839Z,29.80
2019-05-23T09:21:30.437Z,30.00
2019-05-23T09:23:56.681Z,30.50
2019-05-23T09:26:23.453Z,30.80
2019-05-23T09:28:50.513Z,30.00
2019-05-23T09:31:16.777Z,29.40
2019-05-23T09:33:43.565Z,29.50
2019-05-23T09:36:09.774Z,29.30
2019-05-23T09:38:36.299Z,29.20
2019-05-23T09:41:03.119Z,28.90
2019-05-23T09:43:29.393Z,28.20
2019-05-23T09:45:56.088Z,27.50
2019-05-23T09:48:22.364Z,27.50
2019-05-23T09:50:48.611Z,27.90
2019-05-23T09:53:15.152Z,28.50
2019-05-23T09:55:42.101Z,30.30
2019-05-23T09:58:08.465Z,31.20
2019-05-23T10:00:36.083Z,26.60
2019-05-23T10:03:02.561Z,26.40
2019-05-23T10:05:42.005Z,26.20
2019-05-23T10:07:57.330Z,25.50
2019-05-23T10:10:23.949Z,25.00
2019-05-23T10:12:50.247Z,24.90
2019-05-23T10:15:20.085Z,25.20
2019-05-23T10:17:46.555Z,24.70
2019-05-23T10:20:13.694Z,24.80
2019-05-23T10:22:39.888Z,24.90
2019-05-23T10:25:06.817Z,24.60
2019-05-23T10:27:33.020Z,24.50
2019-05-23T10:29:59.391Z,24.10
2019-05-23T10:32:25.939Z,23.60
2019-05-23T10:34:52.659Z,23.20
2019-05-23T10:37:19.419Z,22.90
2019-05-23T10:39:51.387Z,23.00
2019-05-23T10:42:17.656Z,22.90
2019-05-23T10:44:44.979Z,22.90
2019-05-23T10:47:11.481Z,22.80
2019-05-23T10:49:38.014Z,22.60
2019-05-23T10:52:04.337Z,22.50
2019-05-23T10:54:30.809Z,22.40
2019-05-23T10:56:57.366Z,22.40
2019-05-23T10:59:23.917Z,22.30
2019-05-23T11:01:50.247Z,22.50
2019-05-23T11:04:16.391Z,21.80
2019-05-23T11:06:42.820Z,21.70
2019-05-23T11:09:10.975Z,21.60
2019-05-23T11:11:37.886Z,21.30
2019-05-23T11:14:08.745Z,21.20
2019-05-23T11:16:35.316Z,21.20
2019-05-23T11:19:03.443Z,21.30
2019-05-23T11:21:29.754Z,21.20
2019-05-23T11:23:56.793Z,21.30
2019-05-23T11:26:23.096Z,21.20
2019-05-23T11:28:49.340Z,21.20
2019-05-23T11:31:16.050Z,21.10
2019-05-23T11:33:42.442Z,21.00
2019-05-23T11:36:09.455Z,21.10
2019-05-23T11:38:35.933Z,21.20
2019-05-23T11:41:02.432Z,21.00
2019-05-23T11:43:28.935Z,21.00
2019-05-23T11:45:59.974Z,21.00
2019-05-23T11:48:26.741Z,20.90
2019-05-23T11:50:53.196Z,20.90
2019-05-23T11:53:19.442Z,20.80
2019-05-23T11:55:45.926Z,20.90
2019-05-23T11:58:12.165Z,20.90
2019-05-23T12:01:07.874Z,20.90
2019-05-23T12:03:34.193Z,20.80
2019-05-23T12:06:05.315Z,20.90
2019-05-23T12:08:29.006Z,21.00
2019-05-23T12:10:55.561Z,21.10
2019-05-23T12:13:22.207Z,21.30
2019-05-23T12:15:49.164Z,21.40
2019-05-23T12:18:15.483Z,21.40
2019-05-23T12:20:41.942Z,21.40
2019-05-23T12:23:10.984Z,21.30
2019-05-23T12:25:37.138Z,21.40
2019-05-23T12:28:06.071Z,21.20
2019-05-23T12:30:32.740Z,21.30
2019-05-23T12:32:59.029Z,21.40
2019-05-23T12:35:25.191Z,21.40
2019-05-23T12:37:52.030Z,21.60
2019-05-23T12:40:18.566Z,21.70
2019-05-23T12:42:44.783Z,21.50
2019-05-23T12:45:11.465Z,22.30
2019-05-23T12:47:56.338Z,21.80
2019-05-23T12:50:41.422Z,22.00
2019-05-23T12:53:09.499Z,22.00
2019-05-23T12:55:36.051Z,21.90
2019-05-23T12:58:02.421Z,21.90
2019-05-23T13:00:33.662Z,22.00
2019-05-23T13:02:59.944Z,22.00
2019-05-23T13:05:26.173Z,22.20
2019-05-23T13:07:52.788Z,22.50
2019-05-23T13:10:23.820Z,22.70
2019-05-23T13:12:47.098Z,22.80
2019-05-23T13:15:13.650Z,23.10
2019-05-23T13:17:39.912Z,23.20
2019-05-23T13:20:06.932Z,23.20
2019-05-23T13:22:33.889Z,23.40
2019-05-23T13:25:00.209Z,23.70
2019-05-23T13:27:26.841Z,23.70
2019-05-23T13:29:53.317Z,23.80
2019-05-23T13:32:19.672Z,23.80
2019-05-23T13:34:46.057Z,24.00
2019-05-23T13:37:17.043Z,24.10
2019-05-23T13:39:42.352Z,24.20
2019-05-23T13:42:08.661Z,24.20
2019-05-23T13:44:35.912Z,24.40
2019-05-23T13:47:03.240Z,24.50
2019-05-23T13:49:29.687Z,24.80
2019-05-23T13:51:56.158Z,24.90
2019-05-23T13:54:22.484Z,25.10
2019-05-23T13:56:49.546Z,25.20
2019-05-23T13:59:15.970Z,25.40
2019-05-23T14:01:42.316Z,25.50
2019-05-23T14:04:08.580Z,25.60
2019-05-23T14:06:35.213Z,25.70
2019-05-23T14:09:01.768Z,26.20
2019-05-23T14:11:28.028Z,25.90
2019-05-23T14:14:00.564Z,26.90
2019-05-23T14:16:27.164Z,26.30
2019-05-23T14:18:53.788Z,26.20
2019-05-23T14:21:19.949Z,26.30
2019-05-23T14:23:46.170Z,26.30
2019-05-23T14:26:13.510Z,26.40
2019-05-23T14:28:39.770Z,26.50
2019-05-23T14:31:10.967Z,26.50
2019-05-23T14:33:42.335Z,26.50
2019-05-23T14:36:31.684Z,26.70
2019-05-23T14:38:57.225Z,26.80
2019-05-23T14:41:23.407Z,26.90
2019-05-23T14:43:51.631Z,26.90
2019-05-23T14:46:20.218Z,26.80
2019-05-23T14:48:54.072Z,27.00
2019-05-23T14:51:22.530Z,27.00
2019-05-23T14:54:07.525Z,27.00
2019-05-23T14:56:35.678Z,27.10
2019-05-23T14:59:02.228Z,27.00
2019-05-23T15:01:30.385Z,26.90
2019-05-23T15:03:56.678Z,26.90
2019-05-23T15:06:23.019Z,27.00
2019-05-23T15:08:51.581Z,27.00
2019-05-23T15:11:17.348Z,27.10
2019-05-23T15:13:43.497Z,27.00
2019-05-23T15:16:09.808Z,26.90
2019-05-23T15:18:35.964Z,26.90
2019-05-23T15:21:02.212Z,26.90
2019-05-23T15:23:28.481Z,28.40
2019-05-23T15:25:54.692Z,26.90
2019-05-23T15:28:20.836Z,26.90
2019-05-23T15:30:47.151Z,27.00
2019-05-23T15:33:13.460Z,27.10
2019-05-23T15:35:40.174Z,27.00
2019-05-23T15:38:06.394Z,27.10
2019-05-23T15:40:33.077Z,27.00
2019-05-23T15:42:59.237Z,27.20
2019-05-23T15:45:25.948Z,27.10
2019-05-23T15:47:52.099Z,27.20
2019-05-23T15:50:20.837Z,27.30
2019-05-23T15:52:52.068Z,27.50
2019-05-23T15:55:26.313Z,27.40
2019-05-23T15:57:54.923Z,27.40
2019-05-23T16:00:25.672Z,27.20
2019-05-23T16:03:03.026Z,27.20
2019-05-23T16:05:29.473Z,27.20
2019-05-23T16:07:55.746Z,27.30
2019-05-23T16:10:22.152Z,27.30
2019-05-23T16:12:48.371Z,27.30
2019-05-23T16:15:15.128Z,27.30
2019-05-23T16:17:41.735Z,27.40
2019-05-23T16:20:08.644Z,27.60
2019-05-23T16:22:34.859Z,27.90
2019-05-23T16:25:01.055Z,27.80
2019-05-23T16:27:27.368Z,27.90
2019-05-23T16:29:53.495Z,27.90
2019-05-23T16:32:19.695Z,27.80
2019-05-23T16:34:46.876Z,27.60
2019-05-23T16:37:13.820Z,27.70
2019-05-23T16:39:47.635Z,27.80
2019-05-23T16:42:09.965Z,27.80
2019-05-23T16:44:36.231Z,28.00
2019-05-23T16:47:03.226Z,28.50
2019-05-23T16:49:29.385Z,28.00
2019-05-23T16:51:56.096Z,28.20
2019-05-23T16:54:24.167Z,28.30
2019-05-23T16:56:52.488Z,28.30
2019-05-23T16:59:23.497Z,28.20
2019-05-23T17:02:08.149Z,28.00
2019-05-23T17:04:42.397Z,27.70
2019-05-23T17:07:25.826Z,27.70
2019-05-23T17:10:08.065Z,27.70
2019-05-23T17:12:45.151Z,27.70
2019-05-23T17:15:17.538Z,27.50
2019-05-23T17:18:01.387Z,27.40
2019-05-23T17:20:35.246Z,27.30
2019-05-23T17:23:06.559Z,27.20
2019-05-23T17:25:35.127Z,27.30
2019-05-23T17:28:10.106Z,27.40
2019-05-23T17:30:58.384Z,27.40
2019-05-23T17:33:24.947Z,27.30
2019-05-23T17:35:51.127Z,27.20
2019-05-23T17:38:17.372Z,27.30
2019-05-23T17:40:43.599Z,27.40
2019-05-23T17:43:10.721Z,27.50
2019-05-23T17:45:37.724Z,27.50
2019-05-23T17:48:04.772Z,27.60
2019-05-23T17:50:34.744Z,27.70
2019-05-23T17:53:00.079Z,27.80
2019-05-23T17:55:27.582Z,27.80
2019-05-23T17:57:56.768Z,27.80
2019-05-23T18:00:24.417Z,27.40
2019-05-23T18:02:50.572Z,27.90
2019-05-23T18:05:17.761Z,27.90
2019-05-23T18:07:44.006Z,28.00
2019-05-23T18:10:12.755Z,28.00
2019-05-23T18:12:39.067Z,28.10
2019-05-23T18:15:07.821Z,28.20
2019-05-23T18:17:34.099Z,28.20
2019-05-23T18:20:00.972Z,28.30
2019-05-23T18:22:27.927Z,28.40
2019-05-23T18:24:59.045Z,29.00
2019-05-23T18:27:23.025Z,28.60
2019-05-23T18:29:49.510Z,28.60
2019-05-23T18:32:17.692Z,28.80
2019-05-23T18:34:43.943Z,28.90
2019-05-23T18:37:11.072Z,29.00
2019-05-23T18:39:38.407Z,29.20
2019-05-23T18:42:05.960Z,29.30
2019-05-23T18:44:32.275Z,29.40
2019-05-23T18:47:00.343Z,29.50
2019-05-23T18:49:28.566Z,29.70
2019-05-23T18:51:55.033Z,29.80
2019-05-23T18:54:21.622Z,30.00
2019-05-23T18:56:48.073Z,30.00
2019-05-23T18:59:15.193Z,30.30
2019-05-23T19:01:41.604Z,30.40
2019-05-23T19:04:08.344Z,30.50
2019-05-23T19:06:35.371Z,34.50
2019-05-23T19:09:01.930Z,30.40
2019-05-23T19:11:28.665Z,30.80
2019-05-23T19:13:54.947Z,30.90
2019-05-23T19:16:21.557Z,31.10
2019-05-23T19:18:47.866Z,31.60
2019-05-23T19:21:15.000Z,31.90
2019-05-23T19:23:41.663Z,32.20
2019-05-23T19:26:08.457Z,32.50
2019-05-23T19:28:34.813Z,32.80
2019-05-23T19:31:01.046Z,33.70
2019-05-23T19:33:27.585Z,33.20
2019-05-23T19:35:54.478Z,33.40
2019-05-23T19:38:20.704Z,33.70
2019-05-23T19:40:47.214Z,33.90
2019-05-23T19:43:15.088Z,34.10
2019-05-23T19:45:41.396Z,34.30
2019-05-23T19:48:07.530Z,34.60
2019-05-23T19:50:35.088Z,35.40
2019-05-23T19:53:01.264Z,35.10
2019-05-23T19:55:28.527Z,35.50
2019-05-23T19:57:54.763Z,35.80
2019-05-23T20:00:22.963Z,38.80
2019-05-23T20:02:51.192Z,36.20
2019-05-23T20:05:19.405Z,36.50
2019-05-23T20:07:45.852Z,36.80
2019-05-23T20:10:13.475Z,37.00
2019-05-23T20:12:40.252Z,37.30
2019-05-23T20:15:07.602Z,37.60
2019-05-23T20:20:07.733Z,37.30
2019-05-23T20:22:33.900Z,38.00
2019-05-23T20:25:00.237Z,37.90
2019-05-23T20:27:26.432Z,37.90
2019-05-23T20:29:52.592Z,37.90
2019-05-23T20:32:18.819Z,38.50
2019-05-23T20:34:45.100Z,37.80
2019-05-23T20:37:11.862Z,37.90
2019-05-23T20:39:38.129Z,38.40
2019-05-23T20:42:11.362Z,38.20
2019-05-23T20:44:32.999Z,38.40
2019-05-23T20:46:59.218Z,38.50
2019-05-23T20:49:27.394Z,38.80
2019-05-23T20:51:53.527Z,39.00
2019-05-23T20:54:19.686Z,39.10
2019-05-23T21:08:07.370Z,40.00
2019-05-23T21:10:46.223Z,40.30
2019-05-23T21:13:12.902Z,40.70
2019-05-23T21:15:40.896Z,40.80
2019-05-23T21:18:07.322Z,41.20
2019-05-23T21:20:34.475Z,41.30
2019-05-23T21:23:00.656Z,41.60
2019-05-23T21:25:26.796Z,41.20
2019-05-23T21:27:53.274Z,41.80
2019-05-23T21:30:19.479Z,42.10
2019-05-23T21:32:45.666Z,41.60
2019-05-23T21:35:11.806Z,42.30
2019-05-23T21:37:37.976Z,42.50
2019-05-23T21:40:07.484Z,42.70
2019-05-23T21:42:47.379Z,42.90
2019-05-23T21:45:04.121Z,43.00
2019-05-23T21:47:30.333Z,43.10
2019-05-23T21:49:56.549Z,43.30
2019-05-23T21:52:22.733Z,43.40
2019-05-23T21:54:48.871Z,43.60
2019-05-23T21:57:16.314Z,43.70
2019-05-23T21:59:42.714Z,43.90
2019-05-23T22:02:14.331Z,44.00
2019-05-23T22:04:45.027Z,44.10
2019-05-23T22:07:11.206Z,44.20
2019-05-23T22:09:37.871Z,44.40
2019-05-23T22:12:06.136Z,45.80
2019-05-23T22:14:32.273Z,44.70
2019-05-23T22:16:58.428Z,44.90
2019-05-23T22:19:25.018Z,45.10
2019-05-23T22:21:51.178Z,45.20
2019-05-23T22:24:19.175Z,45.40
2019-05-23T22:26:45.366Z,45.50
2019-05-23T22:29:11.638Z,45.60
2019-05-23T22:31:37.887Z,45.70
2019-05-23T22:34:23.779Z,45.80
2019-05-23T22:36:50.175Z,46.10
2019-05-23T22:39:16.417Z,46.00
2019-05-23T22:41:42.566Z,46.10
2019-05-23T22:44:08.820Z,46.20
2019-05-23T22:46:35.560Z,46.20
2019-05-23T22:49:02.078Z,46.40
2019-05-23T22:51:28.212Z,46.40
2019-05-23T22:53:54.385Z,46.60
2019-05-23T22:56:20.534Z,46.60
2019-05-23T22:58:47.039Z,46.70
2019-05-23T23:03:41.989Z,46.20
2019-05-23T23:06:08.431Z,54.50
2019-05-23T23:08:34.698Z,46.90
2019-05-23T23:11:00.847Z,46.40
2019-05-23T23:13:38.169Z,47.70
2019-05-23T23:15:55.343Z,47.20
2019-05-23T23:18:21.539Z,47.30
2019-05-23T23:20:47.774Z,47.40
2019-05-23T23:23:14.021Z,47.50
2019-05-23T23:25:40.209Z,47.50
2019-05-23T23:28:06.360Z,47.60
2019-05-23T23:30:34.544Z,47.70
2019-05-23T23:33:00.687Z,47.90
2019-05-23T23:35:26.880Z,48.10
2019-05-23T23:37:53.016Z,48.30
2019-05-23T23:40:19.289Z,48.20
2019-05-23T23:42:45.707Z,48.30
2019-05-23T23:45:31.061Z,48.40
2019-05-23T23:48:15.792Z,48.50
2019-05-23T23:51:00.731Z,48.50
2019-05-23T23:56:31.429Z,48.10
2019-05-23T23:58:57.584Z,48.80
